Aviation Digital Data Service (ADDS)

Output produced by METARs form (0229 UTC 12 May 2021)
found at http://www.aviationweather.gov/metar/data/
 
Forecast for: EGHI (SOUTHAMPTON WX C, GB)
Text: TAF EGHI 111654Z 1118/1122 17009KT 9999 SCT030
Forecast period: 1800 to 2200 UTC 11 May 2021
Forecast type: FROM: standard forecast or significant change
Winds: from the S (170 degrees) at 10 MPH (9 knots; 4.6 m/s)
Visibility: 6 or more miles (10+ km)
Ceiling: at least 12,000 feet AGL
Clouds: scattered clouds at 3000 feet AGL
Weather: no significant weather forecast for this period
Text: TEMPO 1118/1119 7000 SHRA
Forecast period: 1800 to 1900 UTC 11 May 2021
Forecast type: TEMPORARY: The following changes expected for less than half the time period
Visibility: 4 miles (7 km)
Ceiling: unknown
Clouds: missing
Weather: SHRA  (rain showers)
Text: PROB30
Forecast period: 1800 to 2200 UTC 11 May 2021
Forecast type: TEMPORARY: The following changes expected for less than half the time period
Visibility: missing
Ceiling: 1400 feet AGL
Clouds: broken clouds at 1400 feet AGL
Weather: no significant weather forecast for this period
Text: TEMPO 1118/1122 BKN014
Forecast period: 1900 to 2100 UTC 11 May 2021
Forecast type: TEMPORARY: The following changes expected for less than half the time period
Visibility: 4 miles (7 km)
Ceiling: unknown
Clouds: missing
Weather: SHRA  (rain showers)

Forecast for: EGHH (BOURNEMOUTH AIRP, GB)
Text: TAF EGHH 111654Z 1118/1121 19012KT 9999 SCT030
Forecast period: 1800 to 2100 UTC 11 May 2021
Forecast type: FROM: standard forecast or significant change
Winds: from the S (190 degrees) at 14 MPH (12 knots; 6.2 m/s)
Visibility: 6 or more miles (10+ km)
Ceiling: at least 12,000 feet AGL
Clouds: scattered clouds at 3000 feet AGL
Weather: no significant weather forecast for this period
Text: PROB30
Forecast period: 1800 to 2100 UTC 11 May 2021
Forecast type: TEMPORARY: The following changes expected for less than half the time period
Visibility: 4 miles (7 km)
Ceiling: 1400 feet AGL
Clouds: broken clouds at 1400 feet AGL
Weather: SHRA  (rain showers)
Text: TEMPO 1118/1121 7000 SHRA BKN014
Forecast period: 1800 to 2000 UTC 11 May 2021
Forecast type: TEMPORARY: The following changes expected for less than half the time period
Winds: from the SSW (200 degrees) at 17 MPH (15 knots; 7.7 m/s)
gusting to 29 MPH (25 knots; 12.9 m/s)
Visibility: missing
Ceiling: unknown
Clouds: missing
Weather: no significant weather forecast for this period

Forecast for: AMD
Text: TAF AMD EGKA 111828Z 1118/1119 21014KT 9999 FEW025
Forecast period: 1800 to 1900 UTC 11 May 2021
Forecast type: FROM: standard forecast or significant change
Winds: from the SSW (210 degrees) at 16 MPH (14 knots; 7.2 m/s)
Visibility: 6 or more miles (10+ km)
Ceiling: at least 12,000 feet AGL
Clouds: few clouds at 2500 feet AGL
Weather: no significant weather forecast for this period